KMXF/MXF METAR and TAF weather

Enter ICAO airport designator
Station Type Date Time Source
KMXF METAR 2021/01/16 01:56 UTC NOAA

KMXF 160156Z AUTO 00000KT 10SM CLR 07/M09 A2983 RMK AO2 SLP105 T00691087 $


Station Type Date Time Source
KMXF Decoded METAR 2021/01/16 01:56 UTC NOAA

Maxwell Air Force Base / Montgomery, AL, United States (KMXF) 32-23N 086-22W
Jan 15, 2021 - 08:56 PM EST / 2021.01.16 0156 UTC
Wind: Calm:0
Visibility: 10 mile(s):0
Sky conditions: clear
Temperature: 44.4 F (6.9 C)
Dew Point: 16.3 F (-8.7 C)
Relative Humidity: 31%
Pressure (altimeter): 29.83 in. Hg (1010 hPa)
ob: KMXF 160156Z AUTO 00000KT 10SM CLR 07/M09 A2983 RMK AO2 SLP105 T00691087
cycle: 2

Station Type Date Time Source
KMXF TAF 2021/01/15 20:09 UTC NOAA

TAF TAF KMXF 152000Z 1520/1702 25012G20KT 9999 FEW060 QNH2974INS
BECMG 1605/1606 26006KT 9999 FEW070 QNH2971INS
BECMG 1610/1611 28006KT 9999 BKN020 QNH2978INS
BECMG 1614/1615 30012G20KT 9999 BKN020 QNH2986INS
BECMG 1621/1622 30012KT 9999 SCT025 QNH2997INS TX16/1521Z TNM01/1613Z LAST NO
AMDS AFT 1600 NEXT 1912

Example: see airport list